sensor_id;sensor_type;location;lat;lon;timestamp;pressure;altitude;pressure_sealevel;temperature;humidity
39405;BME280;25121;51.090;17.038;2023-03-17T00:00:29;100718.94;;;3.59;47.94
39405;BME280;25121;51.090;17.038;2023-03-17T00:01:57;100679.22;;;3.33;47.97
39405;BME280;25121;51.090;17.038;2023-03-17T00:03:35;100663.72;;;3.27;48.07
39405;BME280;25121;51.090;17.038;2023-03-17T00:05:22;100712.88;;;3.57;48.09
39405;BME280;25121;51.090;17.038;2023-03-17T00:06:58;100653.44;;;3.22;48.13
39405;BME280;25121;51.090;17.038;2023-03-17T00:08:34;100686.13;;;3.36;47.81
39405;BME280;25121;51.090;17.038;2023-03-17T00:10:42;100672.78;;;3.24;48.16
39405;BME280;25121;51.090;17.038;2023-03-17T00:12:14;100731.50;;;3.57;47.90
39405;BME280;25121;51.090;17.038;2023-03-17T00:13:43;100731.50;;;3.57;48.03
39405;BME280;25121;51.090;17.038;2023-03-17T00:15:12;100719.75;;;3.48;48.32
39405;BME280;25121;51.090;17.038;2023-03-17T00:16:46;100706.91;;;3.42;48.39
39405;BME280;25121;51.090;17.038;2023-03-17T00:18:20;100652.34;;;3.14;48.55
39405;BME280;25121;51.090;17.038;2023-03-17T00:19:49;100692.50;;;3.33;48.58
39405;BME280;25121;51.090;17.038;2023-03-17T00:21:26;100654.84;;;3.15;48.61
39405;BME280;25121;51.090;17.038;2023-03-17T00:22:54;100703.50;;;3.40;48.39
39405;BME280;25121;51.090;17.038;2023-03-17T00:26:10;100671.75;;;3.14;48.64
39405;BME280;25121;51.090;17.038;2023-03-17T00:27:44;100661.63;;;3.08;48.59
39405;BME280;25121;51.090;17.038;2023-03-17T00:29:46;100667.53;;;3.12;48.56
39405;BME280;25121;51.090;17.038;2023-03-17T00:31:18;100679.13;;;3.11;48.54
39405;BME280;25121;51.090;17.038;2023-03-17T00:32:43;100679.97;;;3.11;48.66
39405;BME280;25121;51.090;17.038;2023-03-17T00:34:15;100673.31;;;3.06;48.56
39405;BME280;25121;51.090;17.038;2023-03-17T00:35:42;100672.94;;;3.10;48.86
39405;BME280;25121;51.090;17.038;2023-03-17T00:37:24;100691.34;;;3.13;48.82
39405;BME280;25121;51.090;17.038;2023-03-17T00:39:37;100729.25;;;3.39;48.80
39405;BME280;25121;51.090;17.038;2023-03-17T00:42:24;100698.00;;;3.19;48.82
39405;BME280;25121;51.090;17.038;2023-03-17T00:44:04;100680.31;;;3.07;48.80
39405;BME280;25121;51.090;17.038;2023-03-17T00:45:30;100678.38;;;3.09;48.86
39405;BME280;25121;51.090;17.038;2023-03-17T00:46:59;100701.25;;;3.22;48.79
39405;BME280;25121;51.090;17.038;2023-03-17T00:48:26;100715.13;;;3.39;48.79
39405;BME280;25121;51.090;17.038;2023-03-17T00:49:55;100693.19;;;3.24;48.86
39405;BME280;25121;51.090;17.038;2023-03-17T00:51:40;100701.00;;;3.38;48.89
39405;BME280;25121;51.090;17.038;2023-03-17T00:53:09;100653.84;;;3.05;48.66
39405;BME280;25121;51.090;17.038;2023-03-17T00:54:40;100705.44;;;3.38;48.92
39405;BME280;25121;51.090;17.038;2023-03-17T00:56:32;100666.34;;;3.16;48.75
39405;BME280;25121;51.090;17.038;2023-03-17T00:59:03;100677.34;;;3.22;48.73
39405;BME280;25121;51.090;17.038;2023-03-17T01:12:43;100639.00;;;3.02;49.01
39405;BME280;25121;51.090;17.038;2023-03-17T01:18:54;100620.94;;;2.84;48.93
39405;BME280;25121;51.090;17.038;2023-03-17T01:23:56;100630.53;;;2.97;49.03
39405;BME280;25121;51.090;17.038;2023-03-17T01:38:52;100617.03;;;2.76;49.32
39405;BME280;25121;51.090;17.038;2023-03-17T01:40:19;100604.59;;;2.77;49.51
39405;BME280;25121;51.090;17.038;2023-03-17T01:41:42;100612.00;;;2.85;49.76
39405;BME280;25121;51.090;17.038;2023-03-17T01:43:19;100617.06;;;2.88;49.94
39405;BME280;25121;51.090;17.038;2023-03-17T01:44:59;100578.13;;;2.64;49.92
39405;BME280;25121;51.090;17.038;2023-03-17T01:46:28;100608.16;;;2.89;49.92
39405;BME280;25121;51.090;17.038;2023-03-17T01:47:55;100583.94;;;2.69;49.86
39405;BME280;25121;51.090;17.038;2023-03-17T01:49:23;100608.03;;;2.90;49.98
39405;BME280;25121;51.090;17.038;2023-03-17T01:50:46;100578.28;;;2.74;49.96
39405;BME280;25121;51.090;17.038;2023-03-17T01:52:21;100589.78;;;2.86;50.12
39405;BME280;25121;51.090;17.038;2023-03-17T01:53:44;100574.44;;;2.78;50.01
39405;BME280;25121;51.090;17.038;2023-03-17T01:55:26;100579.06;;;2.87;50.02
39405;BME280;25121;51.090;17.038;2023-03-17T01:57:02;100597.59;;;3.00;50.10
39405;BME280;25121;51.090;17.038;2023-03-17T01:58:31;100570.59;;;2.82;50.09
39405;BME280;25121;51.090;17.038;2023-03-17T02:00:00;100604.59;;;3.01;50.01
39405;BME280;25121;51.090;17.038;2023-03-17T02:01:37;100629.63;;;3.10;50.02
39405;BME280;25121;51.090;17.038;2023-03-17T02:02:59;100625.50;;;3.06;50.16
39405;BME280;25121;51.090;17.038;2023-03-17T02:04:20;100642.38;;;3.05;49.96
39405;BME280;25121;51.090;17.038;2023-03-17T02:05:43;100612.75;;;2.87;49.94
39405;BME280;25121;51.090;17.038;2023-03-17T02:07:08;100646.00;;;3.04;50.16
39405;BME280;25121;51.090;17.038;2023-03-17T02:08:34;100640.81;;;3.02;50.20
39405;BME280;25121;51.090;17.038;2023-03-17T02:09:58;100625.44;;;2.94;50.24
39405;BME280;25121;51.090;17.038;2023-03-17T02:11:22;100621.47;;;3.00;50.33
39405;BME280;25121;51.090;17.038;2023-03-17T02:12:46;100624.03;;;3.01;50.58
39405;BME280;25121;51.090;17.038;2023-03-17T02:14:08;100618.97;;;2.98;50.22
39405;BME280;25121;51.090;17.038;2023-03-17T02:15:38;100580.72;;;2.77;50.51
39405;BME280;25121;51.090;17.038;2023-03-17T02:17:02;100562.31;;;2.63;50.42
39405;BME280;25121;51.090;17.038;2023-03-17T02:18:24;100595.84;;;2.88;50.62
39405;BME280;25121;51.090;17.038;2023-03-17T02:19:46;100607.59;;;2.96;50.45
39405;BME280;25121;51.090;17.038;2023-03-17T02:21:37;100612.28;;;2.93;50.66
39405;BME280;25121;51.090;17.038;2023-03-17T02:23:00;100604.31;;;2.93;50.67
39405;BME280;25121;51.090;17.038;2023-03-17T02:24:31;100583.38;;;2.77;50.62
39405;BME280;25121;51.090;17.038;2023-03-17T02:25:56;100568.94;;;2.68;50.65
39405;BME280;25121;51.090;17.038;2023-03-17T02:27:23;100559.03;;;2.59;50.84
39405;BME280;25121;51.090;17.038;2023-03-17T02:28:49;100591.94;;;2.80;50.71
39405;BME280;25121;51.090;17.038;2023-03-17T02:30:21;100604.88;;;2.85;50.86
39405;BME280;25121;51.090;17.038;2023-03-17T02:33:48;100578.63;;;2.69;50.89
39405;BME280;25121;51.090;17.038;2023-03-17T02:35:09;100599.28;;;2.77;50.83
39405;BME280;25121;51.090;17.038;2023-03-17T02:36:34;100593.56;;;2.70;50.86
39405;BME280;25121;51.090;17.038;2023-03-17T02:37:57;100574.81;;;2.61;50.97
39405;BME280;25121;51.090;17.038;2023-03-17T02:39:22;100580.03;;;2.62;51.06
39405;BME280;25121;51.090;17.038;2023-03-17T02:40:47;100593.56;;;2.70;51.27
39405;BME280;25121;51.090;17.038;2023-03-17T02:42:09;100587.38;;;2.58;51.33
39405;BME280;25121;51.090;17.038;2023-03-17T02:43:32;100552.72;;;2.36;51.23
39405;BME280;25121;51.090;17.038;2023-03-17T02:44:54;100607.19;;;2.66;51.50
39405;BME280;25121;51.090;17.038;2023-03-17T02:57:44;100605.34;;;2.42;51.71
39405;BME280;25121;51.090;17.038;2023-03-17T03:00:00;100598.78;;;2.35;51.66
39405;BME280;25121;51.090;17.038;2023-03-17T03:05:06;100559.84;;;2.11;51.89
39405;BME280;25121;51.090;17.038;2023-03-17T03:07:06;100551.47;;;2.05;51.79
39405;BME280;25121;51.090;17.038;2023-03-17T03:09:16;100563.09;;;2.15;52.09
39405;BME280;25121;51.090;17.038;2023-03-17T03:12:09;100603.88;;;2.38;52.01
39405;BME280;25121;51.090;17.038;2023-03-17T03:14:31;100543.72;;;2.02;52.25
39405;BME280;25121;51.090;17.038;2023-03-17T03:20:14;100597.13;;;2.34;52.24
39405;BME280;25121;51.090;17.038;2023-03-17T03:26:05;100598.28;;;2.30;52.31
39405;BME280;25121;51.090;17.038;2023-03-17T03:29:40;100581.53;;;2.29;52.54
39405;BME280;25121;51.090;17.038;2023-03-17T03:47:47;100560.91;;;2.09;52.83
39405;BME280;25121;51.090;17.038;2023-03-17T03:52:49;100570.94;;;2.17;52.88
39405;BME280;25121;51.090;17.038;2023-03-17T03:55:35;100541.50;;;1.96;52.78
39405;BME280;25121;51.090;17.038;2023-03-17T03:58:13;100507.31;;;1.80;53.05
39405;BME280;25121;51.090;17.038;2023-03-17T04:00:32;100549.56;;;2.07;52.88
39405;BME280;25121;51.090;17.038;2023-03-17T04:10:57;100570.63;;;2.08;52.73
39405;BME280;25121;51.090;17.038;2023-03-17T04:12:20;100537.38;;;1.91;53.09
39405;BME280;25121;51.090;17.038;2023-03-17T04:13:41;100565.31;;;2.08;53.14
39405;BME280;25121;51.090;17.038;2023-03-17T04:15:04;100567.97;;;2.08;53.54
39405;BME280;25121;51.090;17.038;2023-03-17T04:16:26;100567.13;;;2.08;53.47
39405;BME280;25121;51.090;17.038;2023-03-17T04:17:49;100554.63;;;2.10;53.31
39405;BME280;25121;51.090;17.038;2023-03-17T04:19:34;100543.81;;;2.00;53.36
39405;BME280;25121;51.090;17.038;2023-03-17T04:20:57;100553.56;;;2.12;53.48
39405;BME280;25121;51.090;17.038;2023-03-17T04:22:21;100539.78;;;2.07;53.49
39405;BME280;25121;51.090;17.038;2023-03-17T04:23:46;100523.59;;;1.99;53.66
39405;BME280;25121;51.090;17.038;2023-03-17T04:25:11;100542.94;;;2.12;53.64
39405;BME280;25121;51.090;17.038;2023-03-17T04:26:33;100543.41;;;2.06;53.72
39405;BME280;25121;51.090;17.038;2023-03-17T04:27:55;100557.69;;;2.17;54.00
39405;BME280;25121;51.090;17.038;2023-03-17T04:29:17;100556.22;;;2.12;53.71
39405;BME280;25121;51.090;17.038;2023-03-17T04:30:39;100555.88;;;2.17;53.77
39405;BME280;25121;51.090;17.038;2023-03-17T04:32:03;100554.81;;;2.20;53.92
39405;BME280;25121;51.090;17.038;2023-03-17T04:33:25;100557.47;;;2.20;53.88
39405;BME280;25121;51.090;17.038;2023-03-17T04:34:49;100514.91;;;1.97;53.98
39405;BME280;25121;51.090;17.038;2023-03-17T04:36:16;100550.44;;;2.19;53.93
39405;BME280;25121;51.090;17.038;2023-03-17T04:37:39;100495.09;;;1.90;53.97
39405;BME280;25121;51.090;17.038;2023-03-17T04:39:01;100543.38;;;2.19;54.00
39405;BME280;25121;51.090;17.038;2023-03-17T04:40:22;100544.13;;;2.21;53.80
39405;BME280;25121;51.090;17.038;2023-03-17T04:41:46;100495.19;;;1.88;53.89
39405;BME280;25121;51.090;17.038;2023-03-17T04:43:07;100507.16;;;1.94;53.96
39405;BME280;25121;51.090;17.038;2023-03-17T04:44:35;100529.09;;;2.09;53.69
39405;BME280;25121;51.090;17.038;2023-03-17T04:45:56;100545.88;;;2.21;53.96
39405;BME280;25121;51.090;17.038;2023-03-17T04:47:25;100530.16;;;2.06;54.03
39405;BME280;25121;51.090;17.038;2023-03-17T04:48:47;100515.72;;;1.98;53.90
39405;BME280;25121;51.090;17.038;2023-03-17T04:50:10;100527.81;;;2.02;54.12
39405;BME280;25121;51.090;17.038;2023-03-17T04:51:43;100555.56;;;2.22;54.09
39405;BME280;25121;51.090;17.038;2023-03-17T04:56:37;100564.69;;;2.18;53.73
39405;BME280;25121;51.090;17.038;2023-03-17T05:23:23;100513.03;;;1.86;54.15
39405;BME280;25121;51.090;17.038;2023-03-17T05:27:31;100552.72;;;2.12;53.98
39405;BME280;25121;51.090;17.038;2023-03-17T05:29:51;100549.09;;;2.13;54.04
39405;BME280;25121;51.090;17.038;2023-03-17T05:32:32;100544.63;;;2.13;54.22
39405;BME280;25121;51.090;17.038;2023-03-17T05:36:35;100488.44;;;1.84;53.74
39405;BME280;25121;51.090;17.038;2023-03-17T05:37:57;100500.91;;;1.95;54.04
39405;BME280;25121;51.090;17.038;2023-03-17T05:39:20;100541.47;;;2.21;53.98
39405;BME280;25121;51.090;17.038;2023-03-17T05:40:43;100528.81;;;2.25;53.81
39405;BME280;25121;51.090;17.038;2023-03-17T05:42:15;100523.94;;;2.19;53.99
39405;BME280;25121;51.090;17.038;2023-03-17T05:43:40;100494.81;;;2.06;53.84
39405;BME280;25121;51.090;17.038;2023-03-17T05:45:06;100514.84;;;2.10;53.89
39405;BME280;25121;51.090;17.038;2023-03-17T05:46:31;100501.09;;;2.05;54.19
39405;BME280;25121;51.090;17.038;2023-03-17T05:47:54;100557.31;;;2.34;53.97
39405;BME280;25121;51.090;17.038;2023-03-17T05:49:15;100516.84;;;2.19;53.90
39405;BME280;25121;51.090;17.038;2023-03-17T05:50:38;100485.28;;;2.03;53.79
39405;BME280;25121;51.090;17.038;2023-03-17T05:52:02;100523.41;;;2.26;53.72
39405;BME280;25121;51.090;17.038;2023-03-17T05:53:24;100536.63;;;2.39;53.99
39405;BME280;25121;51.090;17.038;2023-03-17T05:54:51;100520.41;;;2.31;53.84
39405;BME280;25121;51.090;17.038;2023-03-17T05:56:13;100535.88;;;2.37;53.58
39405;BME280;25121;51.090;17.038;2023-03-17T05:57:37;100537.97;;;2.45;53.89
39405;BME280;25121;51.090;17.038;2023-03-17T05:58:59;100546.91;;;2.44;53.74
39405;BME280;25121;51.090;17.038;2023-03-17T06:00:24;100549.09;;;2.50;53.82
39405;BME280;25121;51.090;17.038;2023-03-17T06:01:49;100517.53;;;2.34;53.81
39405;BME280;25121;51.090;17.038;2023-03-17T06:03:11;100511.50;;;2.32;53.70
39405;BME280;25121;51.090;17.038;2023-03-17T06:04:34;100545.88;;;2.57;53.69
39405;BME280;25121;51.090;17.038;2023-03-17T06:05:58;100522.91;;;2.45;53.56
39405;BME280;25121;51.090;17.038;2023-03-17T06:07:21;100547.34;;;2.62;53.67
39405;BME280;25121;51.090;17.038;2023-03-17T06:08:42;100520.41;;;2.55;53.45
39405;BME280;25121;51.090;17.038;2023-03-17T06:10:07;100522.97;;;2.56;53.54
39405;BME280;25121;51.090;17.038;2023-03-17T06:11:31;100515.94;;;2.55;53.39
39405;BME280;25121;51.090;17.038;2023-03-17T06:12:53;100520.69;;;2.63;53.41
39405;BME280;25121;51.090;17.038;2023-03-17T06:14:16;100542.38;;;2.81;53.29
39405;BME280;25121;51.090;17.038;2023-03-17T06:15:39;100552.63;;;2.86;53.25
39405;BME280;25121;51.090;17.038;2023-03-17T06:17:02;100542.88;;;2.86;53.28
39405;BME280;25121;51.090;17.038;2023-03-17T06:18:23;100547.84;;;2.91;53.19
39405;BME280;25121;51.090;17.038;2023-03-17T06:19:46;100544.81;;;2.95;52.83
39405;BME280;25121;51.090;17.038;2023-03-17T06:21:09;100538.44;;;2.98;52.97
39405;BME280;25121;51.090;17.038;2023-03-17T06:22:41;100538.59;;;3.08;52.72
39405;BME280;25121;51.090;17.038;2023-03-17T06:24:23;100493.63;;;2.82;53.04
39405;BME280;25121;51.090;17.038;2023-03-17T06:25:47;100534.91;;;3.21;52.68
39405;BME280;25121;51.090;17.038;2023-03-17T06:27:10;100549.41;;;3.29;52.59
39405;BME280;25121;51.090;17.038;2023-03-17T06:28:33;100538.19;;;3.36;52.62
39405;BME280;25121;51.090;17.038;2023-03-17T06:29:55;100535.41;;;3.38;52.54
39405;BME280;25121;51.090;17.038;2023-03-17T06:31:18;100549.56;;;3.50;52.54
39405;BME280;25121;51.090;17.038;2023-03-17T06:32:41;100543.78;;;3.56;52.30
39405;BME280;25121;51.090;17.038;2023-03-17T06:34:04;100515.34;;;3.45;52.00
39405;BME280;25121;51.090;17.038;2023-03-17T06:35:27;100522.75;;;3.64;51.92
39405;BME280;25121;51.090;17.038;2023-03-17T06:36:49;100539.06;;;3.82;51.81
39405;BME280;25121;51.090;17.038;2023-03-17T06:38:12;100525.41;;;3.86;51.58
39405;BME280;25121;51.090;17.038;2023-03-17T06:39:34;100536.16;;;3.96;51.61
39405;BME280;25121;51.090;17.038;2023-03-17T06:40:58;100527.34;;;3.96;51.25
39405;BME280;25121;51.090;17.038;2023-03-17T06:42:21;100536.97;;;4.19;51.32
39405;BME280;25121;51.090;17.038;2023-03-17T06:43:43;100516.94;;;4.15;51.20
39405;BME280;25121;51.090;17.038;2023-03-17T06:45:07;100521.47;;;4.36;50.93
39405;BME280;25121;51.090;17.038;2023-03-17T06:46:30;100537.97;;;4.62;50.70
39405;BME280;25121;51.090;17.038;2023-03-17T06:47:53;100530.69;;;4.75;50.42
39405;BME280;25121;51.090;17.038;2023-03-17T06:49:15;100492.34;;;4.66;50.32
39405;BME280;25121;51.090;17.038;2023-03-17T06:50:41;100510.38;;;4.95;49.95
39405;BME280;25121;51.090;17.038;2023-03-17T06:52:06;100527.78;;;5.20;49.59
39405;BME280;25121;51.090;17.038;2023-03-17T06:53:31;100523.44;;;5.40;49.19
39405;BME280;25121;51.090;17.038;2023-03-17T06:54:55;100539.00;;;5.66;48.87
39405;BME280;25121;51.090;17.038;2023-03-17T06:56:19;100501.66;;;5.66;48.62
39405;BME280;25121;51.090;17.038;2023-03-17T06:57:50;100506.25;;;5.85;48.41
39405;BME280;25121;51.090;17.038;2023-03-17T06:59:14;100514.78;;;6.09;48.08
39405;BME280;25121;51.090;17.038;2023-03-17T07:00:42;100526.50;;;6.37;47.73
39405;BME280;25121;51.090;17.038;2023-03-17T07:02:09;100478.16;;;6.31;47.31
39405;BME280;25121;51.090;17.038;2023-03-17T07:03:32;100523.31;;;6.73;47.04
39405;BME280;25121;51.090;17.038;2023-03-17T07:04:57;100523.03;;;6.85;46.63
39405;BME280;25121;51.090;17.038;2023-03-17T07:06:19;100493.22;;;6.80;46.27
39405;BME280;25121;51.090;17.038;2023-03-17T07:07:43;100500.53;;;6.98;46.02
39405;BME280;25121;51.090;17.038;2023-03-17T07:09:12;100506.16;;;7.14;45.51
39405;BME280;25121;51.090;17.038;2023-03-17T07:10:40;100519.88;;;7.39;45.26
39405;BME280;25121;51.090;17.038;2023-03-17T07:12:15;100529.56;;;7.49;44.96
39405;BME280;25121;51.090;17.038;2023-03-17T07:13:40;100476.84;;;7.32;44.52
39405;BME280;25121;51.090;17.038;2023-03-17T07:15:03;100525.69;;;7.71;44.39
39405;BME280;25121;51.090;17.038;2023-03-17T07:16:26;100522.00;;;7.82;44.15
39405;BME280;25121;51.090;17.038;2023-03-17T07:17:48;100490.78;;;7.73;43.94
39405;BME280;25121;51.090;17.038;2023-03-17T07:19:11;100516.44;;;8.03;43.80
39405;BME280;25121;51.090;17.038;2023-03-17T07:20:33;100504.19;;;8.01;43.46
39405;BME280;25121;51.090;17.038;2023-03-17T07:21:56;100521.13;;;8.19;43.26
39405;BME280;25121;51.090;17.038;2023-03-17T07:23:21;100515.84;;;8.27;43.03
39405;BME280;25121;51.090;17.038;2023-03-17T07:24:52;100490.00;;;8.18;42.69
39405;BME280;25121;51.090;17.038;2023-03-17T07:26:13;100522.00;;;8.47;42.56
39405;BME280;25121;51.090;17.038;2023-03-17T07:27:37;100477.09;;;8.31;42.27
39405;BME280;25121;51.090;17.038;2023-03-17T07:29:01;100482.41;;;8.41;42.13
39405;BME280;25121;51.090;17.038;2023-03-17T07:30:24;100521.06;;;8.74;41.64
39405;BME280;25121;51.090;17.038;2023-03-17T07:32:15;100527.22;;;8.84;41.72
39405;BME280;25121;51.090;17.038;2023-03-17T07:33:40;100515.34;;;8.87;41.55
39405;BME280;25121;51.090;17.038;2023-03-17T07:35:03;100464.72;;;8.66;41.41
39405;BME280;25121;51.090;17.038;2023-03-17T07:36:27;100514.09;;;8.99;41.16
39405;BME280;25121;51.090;17.038;2023-03-17T07:37:49;100480.66;;;8.86;41.09
39405;BME280;25121;51.090;17.038;2023-03-17T07:39:12;100482.22;;;8.96;41.06
39405;BME280;25121;51.090;17.038;2023-03-17T07:40:37;100507.88;;;9.17;40.57
39405;BME280;25121;51.090;17.038;2023-03-17T07:42:02;100501.56;;;9.26;40.65
39405;BME280;25121;51.090;17.038;2023-03-17T07:43:26;100461.91;;;9.12;40.65
39405;BME280;25121;51.090;17.038;2023-03-17T07:44:49;100498.31;;;9.40;40.50
39405;BME280;25121;51.090;17.038;2023-03-17T07:46:12;100487.06;;;9.37;40.20
39405;BME280;25121;51.090;17.038;2023-03-17T07:47:36;100465.53;;;9.28;40.56
39405;BME280;25121;51.090;17.038;2023-03-17T07:48:59;100510.97;;;9.56;40.27
39405;BME280;25121;51.090;17.038;2023-03-17T07:50:21;100500.25;;;9.56;40.13
39405;BME280;25121;51.090;17.038;2023-03-17T07:51:44;100487.00;;;9.55;39.74
39405;BME280;25121;51.090;17.038;2023-03-17T07:53:31;100496.97;;;9.70;39.78
39405;BME280;25121;51.090;17.038;2023-03-17T07:54:55;100491.84;;;9.85;39.45
39405;BME280;25121;51.090;17.038;2023-03-17T07:56:18;100466.72;;;9.86;39.33
39405;BME280;25121;51.090;17.038;2023-03-17T07:57:46;100492.44;;;10.05;39.53
39405;BME280;25121;51.090;17.038;2023-03-17T07:59:11;100476.38;;;10.22;38.99
39405;BME280;25121;51.090;17.038;2023-03-17T08:00:36;100456.47;;;10.32;38.56
39405;BME280;25121;51.090;17.038;2023-03-17T08:02:00;100482.38;;;10.66;38.27
39405;BME280;25121;51.090;17.038;2023-03-17T08:03:26;100487.94;;;10.89;38.01
39405;BME280;25121;51.090;17.038;2023-03-17T08:04:51;100482.91;;;11.11;37.84
39405;BME280;25121;51.090;17.038;2023-03-17T08:06:14;100463.53;;;11.15;37.68
39405;BME280;25121;51.090;17.038;2023-03-17T08:07:38;100462.03;;;11.29;37.18
39405;BME280;25121;51.090;17.038;2023-03-17T08:09:08;100448.88;;;11.42;36.80
39405;BME280;25121;51.090;17.038;2023-03-17T08:10:32;100470.47;;;11.74;36.49
39405;BME280;25121;51.090;17.038;2023-03-17T08:11:59;100478.19;;;11.93;36.33
39405;BME280;25121;51.090;17.038;2023-03-17T08:13:23;100476.47;;;12.00;36.35
39405;BME280;25121;51.090;17.038;2023-03-17T08:14:50;100471.22;;;12.07;36.09
39405;BME280;25121;51.090;17.038;2023-03-17T08:16:14;100468.81;;;12.20;35.83
39405;BME280;25121;51.090;17.038;2023-03-17T08:17:37;100452.75;;;12.27;35.43
39405;BME280;25121;51.090;17.038;2023-03-17T08:19:00;100455.34;;;12.43;35.21
39405;BME280;25121;51.090;17.038;2023-03-17T08:20:23;100482.16;;;12.68;35.04
39405;BME280;25121;51.090;17.038;2023-03-17T08:21:50;100462.50;;;12.82;34.76
39405;BME280;25121;51.090;17.038;2023-03-17T08:23:16;100439.13;;;12.75;34.80
39405;BME280;25121;51.090;17.038;2023-03-17T08:24:38;100477.72;;;13.13;34.68
39405;BME280;25121;51.090;17.038;2023-03-17T08:26:05;100426.59;;;12.97;34.66
39405;BME280;25121;51.090;17.038;2023-03-17T08:27:28;100479.31;;;13.45;34.17
39405;BME280;25121;51.090;17.038;2023-03-17T08:28:54;100460.25;;;13.62;33.84
39405;BME280;25121;51.090;17.038;2023-03-17T08:30:18;100465.44;;;13.93;33.31
39405;BME280;25121;51.090;17.038;2023-03-17T08:31:41;100458.03;;;14.16;32.93
39405;BME280;25121;51.090;17.038;2023-03-17T08:33:06;100429.22;;;14.24;32.49
39405;BME280;25121;51.090;17.038;2023-03-17T08:34:28;100434.25;;;14.48;32.29
39405;BME280;25121;51.090;17.038;2023-03-17T08:36:02;100425.09;;;14.64;31.95
39405;BME280;25121;51.090;17.038;2023-03-17T08:37:25;100427.69;;;15.00;31.61
39405;BME280;25121;51.090;17.038;2023-03-17T08:38:47;100444.59;;;15.31;31.64
39405;BME280;25121;51.090;17.038;2023-03-17T08:40:12;100453.97;;;15.63;31.30
39405;BME280;25121;51.090;17.038;2023-03-17T08:41:39;100450.38;;;15.90;30.96
39405;BME280;25121;51.090;17.038;2023-03-17T08:43:02;100430.16;;;16.00;30.98
39405;BME280;25121;51.090;17.038;2023-03-17T08:44:25;100415.84;;;16.12;30.66
39405;BME280;25121;51.090;17.038;2023-03-17T08:45:49;100443.69;;;16.61;30.24
39405;BME280;25121;51.090;17.038;2023-03-17T08:47:12;100444.19;;;16.91;29.86
39405;BME280;25121;51.090;17.038;2023-03-17T08:48:35;100439.16;;;17.21;29.68
39405;BME280;25121;51.090;17.038;2023-03-17T08:49:58;100430.34;;;17.53;28.99
39405;BME280;25121;51.090;17.038;2023-03-17T08:51:23;100390.97;;;17.69;29.07
39405;BME280;25121;51.090;17.038;2023-03-17T08:52:46;100446.06;;;18.47;28.19
39405;BME280;25121;51.090;17.038;2023-03-17T08:54:11;100410.06;;;19.27;26.86
39405;BME280;25121;51.090;17.038;2023-03-17T08:55:33;100418.75;;;19.98;25.97
39405;BME280;25121;51.090;17.038;2023-03-17T08:56:57;100439.72;;;20.46;25.58
39405;BME280;25121;51.090;17.038;2023-03-17T08:58:21;100438.53;;;20.72;24.84
39405;BME280;25121;51.090;17.038;2023-03-17T08:59:44;100465.91;;;21.07;24.38
39405;BME280;25121;51.090;17.038;2023-03-17T09:01:08;100468.22;;;21.46;23.27
39405;BME280;25121;51.090;17.038;2023-03-17T09:02:31;100454.97;;;21.78;23.15
39405;BME280;25121;51.090;17.038;2023-03-17T09:03:54;100462.91;;;22.03;22.42
39405;BME280;25121;51.090;17.038;2023-03-17T09:05:17;100470.69;;;22.35;22.97
39405;BME280;25121;51.090;17.038;2023-03-17T09:06:40;100440.06;;;22.38;22.50
39405;BME280;25121;51.090;17.038;2023-03-17T09:08:25;100442.66;;;22.45;22.64
39405;BME280;25121;51.090;17.038;2023-03-17T09:09:52;100442.59;;;21.99;22.37
39405;BME280;25121;51.090;17.038;2023-03-17T09:11:16;100464.63;;;22.33;22.47
39405;BME280;25121;51.090;17.038;2023-03-17T09:12:38;100456.97;;;23.09;21.67
39405;BME280;25121;51.090;17.038;2023-03-17T09:14:04;100458.81;;;23.76;20.84
39405;BME280;25121;51.090;17.038;2023-03-17T09:15:27;100472.03;;;24.23;20.72
39405;BME280;25121;51.090;17.038;2023-03-17T09:16:51;100463.97;;;24.39;20.30
39405;BME280;25121;51.090;17.038;2023-03-17T09:18:17;100464.38;;;24.25;20.58
39405;BME280;25121;51.090;17.038;2023-03-17T09:19:41;100438.97;;;23.91;20.85
39405;BME280;25121;51.090;17.038;2023-03-17T09:21:05;100459.72;;;23.65;20.94
39405;BME280;25121;51.090;17.038;2023-03-17T09:22:29;100458.13;;;23.30;21.46
39405;BME280;25121;51.090;17.038;2023-03-17T09:23:52;100451.81;;;23.13;21.62
39405;BME280;25121;51.090;17.038;2023-03-17T09:25:15;100461.63;;;23.09;21.81
39405;BME280;25121;51.090;17.038;2023-03-17T09:26:37;100438.50;;;22.88;21.43
39405;BME280;25121;51.090;17.038;2023-03-17T09:28:00;100455.81;;;23.05;21.82
39405;BME280;25121;51.090;17.038;2023-03-17T09:29:21;100451.25;;;23.11;21.98
39405;BME280;25121;51.090;17.038;2023-03-17T09:30:43;100474.88;;;23.68;22.20
39405;BME280;25121;51.090;17.038;2023-03-17T09:32:09;100480.53;;;24.22;21.09
39405;BME280;25121;51.090;17.038;2023-03-17T09:33:33;100475.44;;;25.12;20.00
39405;BME280;25121;51.090;17.038;2023-03-17T09:34:55;100453.16;;;25.93;19.41
39405;BME280;25121;51.090;17.038;2023-03-17T09:36:18;100432.19;;;26.91;17.99
39405;BME280;25121;51.090;17.038;2023-03-17T09:37:40;100405.06;;;27.55;17.17
39405;BME280;25121;51.090;17.038;2023-03-17T09:39:09;100435.94;;;28.37;16.89
39405;BME280;25121;51.090;17.038;2023-03-17T09:40:46;100428.81;;;28.26;16.80
39405;BME280;25121;51.090;17.038;2023-03-17T09:42:19;100405.72;;;27.11;17.42
39405;BME280;25121;51.090;17.038;2023-03-17T09:43:50;100416.72;;;27.36;17.76
39405;BME280;25121;51.090;17.038;2023-03-17T09:45:27;100424.78;;;28.58;17.48
39405;BME280;25121;51.090;17.038;2023-03-17T09:46:58;100405.22;;;29.17;16.62
39405;BME280;25121;51.090;17.038;2023-03-17T09:48:48;100445.59;;;29.77;15.86
39405;BME280;25121;51.090;17.038;2023-03-17T09:50:16;100416.88;;;30.11;15.28